KLUM

Details ICAO KLUM
Name MENOMONIE MUNI SCORE FIELD
Region United States
Timezone America/Chicago (UTC-6.0)
Plans Departing 4
Arriving 2
Stats Elevation 895 ft / 273 m (AMSL)
Location 44.892861° -91.868816°
Runways 2
Magnetic Variation 0.932° W
Sunrise 2017-12-16 13:40:46 UTC / 2017-12-16 07:40:46 Local
Sunset 2017-12-16 22:28:27 UTC / 2017-12-16 16:28:27 Local
Advertisement - Login to hide

Runways

ID Width Length Bearing (true) Bearing (mag) Surface Threshold Offset Overrun Length
09 75 ft / 23 m 5,062 ft / 1,543 m 90.57° 91.50° Asphalt 0 ft / 0 m 0 ft / 0 m
18 75 ft / 23 m 3,453 ft / 1,053 m 183.00° 183.93° Asphalt 0 ft / 0 m 0 ft / 0 m
27 75 ft / 23 m 5,062 ft / 1,543 m 270.58° 271.51° Asphalt 0 ft / 0 m 0 ft / 0 m
36 75 ft / 23 m 3,453 ft / 1,053 m 3.00° 3.93° Asphalt 0 ft / 0 m 0 ft / 0 m

Map

Weather


0- 5 10 15 20 25 30 35+ Temperature / ° C

Clouds and Precipitation
Forecast for 2017-12-16 18:00 UTC. Updated 20 minutes ago

Ground ~20,000 ft ~40,000 ft Winds

METAR

KLUM 161335Z AUTO 06009KT 7SM OVC009 M05/M07 A2980 RMK AO2 T10501066

TAF

Not found

Frequencies

Recorded 118.02 MHz AWOS 3
Approach 125.30 MHz MINNEAPOLIS APP/DEP
Unicom 122.70 MHz CTAF/UNICOM
Warning: Do not use this data for real-world aviation or navigation. No guarantee of current accuracy is given.